createdAt,value
2016-09-17T00:00:11.247Z,0
2016-09-17T00:01:11.224Z,0
2016-09-17T00:02:11.247Z,0
2016-09-17T00:03:11.291Z,0
2016-09-17T00:04:11.290Z,0
2016-09-17T00:05:11.295Z,0
2016-09-17T00:06:12.536Z,0
2016-09-17T00:07:11.278Z,0
2016-09-17T00:08:11.230Z,0
2016-09-17T00:09:12.305Z,0
2016-09-17T00:10:11.251Z,0
2016-09-17T00:11:11.308Z,0
2016-09-17T00:12:12.192Z,0
2016-09-17T00:13:11.220Z,0
2016-09-17T00:14:11.245Z,0
2016-09-17T00:15:12.342Z,0
2016-09-17T00:16:11.266Z,0
2016-09-17T00:17:11.306Z,0
2016-09-17T00:18:11.237Z,0
2016-09-17T00:19:11.475Z,0
2016-09-17T00:20:12.305Z,0
2016-09-17T00:21:11.253Z,0
2016-09-17T00:22:11.263Z,0
2016-09-17T00:23:11.631Z,0
2016-09-17T00:24:11.247Z,0
2016-09-17T00:25:12.099Z,0
2016-09-17T00:26:11.306Z,0
2016-09-17T00:27:11.263Z,0
2016-09-17T00:28:11.256Z,0
2016-09-17T00:29:11.276Z,0
2016-09-17T00:30:11.267Z,0
2016-09-17T00:31:11.259Z,0
2016-09-17T00:32:11.283Z,0
2016-09-17T00:33:11.273Z,0
2016-09-17T00:34:11.251Z,0
2016-09-17T00:35:11.269Z,0
2016-09-17T00:36:11.253Z,0
2016-09-17T00:37:11.271Z,0
2016-09-17T00:38:11.288Z,0
2016-09-17T00:39:11.299Z,0
2016-09-17T00:40:11.262Z,0
2016-09-17T00:41:11.278Z,0
2016-09-17T00:42:11.273Z,0
2016-09-17T00:43:11.295Z,0
2016-09-17T00:44:11.268Z,0
2016-09-17T00:45:11.269Z,0
2016-09-17T00:46:11.306Z,0
2016-09-17T00:47:11.290Z,0
2016-09-17T00:48:11.295Z,0
2016-09-17T00:49:11.295Z,0
2016-09-17T00:50:11.289Z,0
2016-09-17T00:51:11.306Z,0
2016-09-17T00:52:11.298Z,0
2016-09-17T00:53:11.307Z,0
2016-09-17T00:54:11.313Z,0
2016-09-17T00:55:11.274Z,0
2016-09-17T00:56:11.296Z,0
2016-09-17T00:57:11.304Z,0
2016-09-17T00:58:11.265Z,0
2016-09-17T00:59:11.959Z,0
2016-09-17T01:00:11.319Z,0
2016-09-17T01:01:11.299Z,0
2016-09-17T01:02:11.314Z,0
2016-09-17T01:03:11.299Z,0
2016-09-17T01:04:11.289Z,0
2016-09-17T01:05:11.253Z,0
2016-09-17T01:06:11.301Z,0
2016-09-17T01:07:11.276Z,0
2016-09-17T01:08:11.294Z,0
2016-09-17T01:09:11.295Z,0
2016-09-17T01:10:11.317Z,0
2016-09-17T01:11:11.278Z,0
2016-09-17T01:12:11.307Z,0
2016-09-17T01:13:11.312Z,0
2016-09-17T01:14:11.321Z,0
2016-09-17T01:15:11.340Z,0
2016-09-17T01:16:11.328Z,0
2016-09-17T01:17:11.298Z,0
2016-09-17T01:18:11.337Z,0
2016-09-17T01:19:11.305Z,0
2016-09-17T01:20:11.301Z,0
2016-09-17T01:21:11.293Z,0
2016-09-17T01:22:11.285Z,0
2016-09-17T01:23:11.306Z,0
2016-09-17T01:24:11.293Z,0
2016-09-17T01:25:11.307Z,0
2016-09-17T01:26:11.322Z,0
2016-09-17T01:27:11.292Z,0
2016-09-17T01:28:11.311Z,0
2016-09-17T01:29:11.316Z,0
2016-09-17T01:30:11.313Z,0
2016-09-17T01:31:11.304Z,0
2016-09-17T01:32:11.308Z,0
2016-09-17T01:33:11.330Z,0
2016-09-17T01:34:11.298Z,0
2016-09-17T01:35:11.317Z,0
2016-09-17T01:36:11.310Z,0
2016-09-17T01:37:11.522Z,0
2016-09-17T01:38:11.361Z,0
2016-09-17T01:39:11.343Z,0
2016-09-17T01:40:11.406Z,0
2016-09-17T01:41:11.356Z,0
2016-09-17T01:42:11.378Z,0
2016-09-17T01:43:11.429Z,0
2016-09-17T01:44:11.373Z,0
2016-09-17T01:45:11.365Z,0
2016-09-17T01:46:11.394Z,0
2016-09-17T01:47:11.363Z,0
2016-09-17T01:48:11.318Z,0
2016-09-17T01:49:11.347Z,0
2016-09-17T01:50:11.327Z,0
2016-09-17T01:51:11.361Z,0
2016-09-17T01:52:11.369Z,0
2016-09-17T01:53:11.331Z,0
2016-09-17T01:54:11.333Z,0
2016-09-17T01:55:11.327Z,0
2016-09-17T01:56:11.319Z,0
2016-09-17T01:57:11.364Z,0
2016-09-17T01:58:11.373Z,0
2016-09-17T01:59:11.344Z,0
2016-09-17T02:00:11.335Z,0
2016-09-17T02:01:11.383Z,0
2016-09-17T02:02:11.332Z,0
2016-09-17T02:03:11.353Z,0
2016-09-17T02:04:11.349Z,0
2016-09-17T02:05:11.337Z,0
2016-09-17T02:06:11.330Z,0
2016-09-17T02:07:11.322Z,0
2016-09-17T02:08:11.361Z,0
2016-09-17T02:09:11.363Z,0
2016-09-17T02:10:11.342Z,0
2016-09-17T02:11:11.393Z,0
2016-09-17T02:12:11.358Z,0
2016-09-17T02:13:11.344Z,0
2016-09-17T02:14:11.337Z,0
2016-09-17T02:15:11.363Z,0
2016-09-17T02:16:11.355Z,0
2016-09-17T02:17:11.390Z,0
2016-09-17T02:18:11.349Z,0
2016-09-17T02:19:11.387Z,0
2016-09-17T02:20:11.424Z,0
2016-09-17T02:21:11.354Z,0
2016-09-17T02:22:11.350Z,0
2016-09-17T02:23:11.356Z,0
2016-09-17T02:24:11.347Z,0
2016-09-17T02:25:11.351Z,0
2016-09-17T02:26:11.400Z,0
2016-09-17T02:27:11.336Z,0
2016-09-17T02:28:11.372Z,0
2016-09-17T02:29:11.363Z,0
2016-09-17T02:30:11.367Z,0
2016-09-17T02:31:11.375Z,0
2016-09-17T02:32:11.384Z,0
2016-09-17T02:33:11.371Z,0
2016-09-17T02:34:11.404Z,0
2016-09-17T02:35:11.387Z,0
2016-09-17T02:36:11.377Z,0
2016-09-17T02:37:11.404Z,0
2016-09-17T02:38:11.388Z,0
2016-09-17T02:39:11.396Z,0
2016-09-17T02:40:11.405Z,0
2016-09-17T02:41:11.441Z,0
2016-09-17T02:42:11.413Z,0
2016-09-17T02:43:11.400Z,0
2016-09-17T02:44:11.392Z,0
2016-09-17T02:45:11.409Z,0
2016-09-17T02:46:11.371Z,0
2016-09-17T02:47:11.379Z,0
2016-09-17T02:48:11.390Z,0
2016-09-17T02:49:11.399Z,0
2016-09-17T02:50:11.422Z,0
2016-09-17T02:51:11.384Z,0
2016-09-17T02:52:11.365Z,0
2016-09-17T02:53:11.386Z,0
2016-09-17T02:54:11.428Z,0
2016-09-17T02:55:11.375Z,0
2016-09-17T02:56:11.394Z,0
2016-09-17T02:57:11.390Z,0
2016-09-17T02:58:11.411Z,0
2016-09-17T02:59:11.403Z,0
2016-09-17T03:00:11.455Z,0
2016-09-17T03:01:11.403Z,0
2016-09-17T03:02:11.415Z,0
2016-09-17T03:03:11.386Z,0
2016-09-17T03:04:11.422Z,0
2016-09-17T03:05:11.449Z,0
2016-09-17T03:06:11.465Z,0
2016-09-17T03:07:11.442Z,0
2016-09-17T03:08:11.433Z,0
2016-09-17T03:09:11.409Z,0
2016-09-17T03:10:11.397Z,0
2016-09-17T03:11:11.459Z,0
2016-09-17T03:12:11.439Z,0
2016-09-17T03:13:11.421Z,0
2016-09-17T03:14:11.423Z,0
2016-09-17T03:15:11.434Z,0
2016-09-17T03:16:11.451Z,0
2016-09-17T03:17:11.397Z,0
2016-09-17T03:18:11.409Z,0
2016-09-17T03:19:11.419Z,0
2016-09-17T03:20:11.419Z,0
2016-09-17T03:21:11.423Z,0
2016-09-17T03:22:11.422Z,0
2016-09-17T03:23:11.407Z,0
2016-09-17T03:24:11.403Z,0
2016-09-17T03:25:11.479Z,0
2016-09-17T03:26:11.414Z,0
2016-09-17T03:27:11.422Z,0
2016-09-17T03:28:11.429Z,0
2016-09-17T03:29:11.470Z,0
2016-09-17T03:30:11.413Z,0
2016-09-17T03:31:11.448Z,0
2016-09-17T03:32:11.452Z,0
2016-09-17T03:33:11.444Z,0
2016-09-17T03:34:11.438Z,0
2016-09-17T03:35:11.413Z,0
2016-09-17T03:36:11.417Z,0
2016-09-17T03:37:11.439Z,0
2016-09-17T03:38:11.434Z,0
2016-09-17T03:39:11.410Z,0
2016-09-17T03:40:11.418Z,0
2016-09-17T03:41:11.472Z,0
2016-09-17T03:42:11.444Z,0
2016-09-17T03:43:11.464Z,0
2016-09-17T03:44:11.445Z,0
2016-09-17T03:45:11.439Z,0
2016-09-17T03:46:11.448Z,0
2016-09-17T03:47:11.434Z,0
2016-09-17T03:48:11.530Z,0
2016-09-17T03:49:11.457Z,0
2016-09-17T03:50:11.509Z,0
2016-09-17T03:51:11.463Z,0
2016-09-17T03:52:11.453Z,0
2016-09-17T03:53:11.441Z,0
2016-09-17T03:54:11.425Z,0
2016-09-17T03:55:11.455Z,0
2016-09-17T03:56:11.423Z,0
2016-09-17T03:57:11.436Z,0
2016-09-17T03:58:11.452Z,0
2016-09-17T03:59:11.505Z,0
2016-09-17T04:00:11.439Z,0
2016-09-17T04:01:11.441Z,0
2016-09-17T04:02:11.463Z,0
2016-09-17T04:03:11.522Z,0
2016-09-17T04:04:11.446Z,0
2016-09-17T04:05:11.479Z,0
2016-09-17T04:06:11.455Z,0
2016-09-17T04:07:11.467Z,0
2016-09-17T04:08:11.513Z,0
2016-09-17T04:09:11.463Z,0
2016-09-17T04:10:11.442Z,0
2016-09-17T04:11:11.465Z,0
2016-09-17T04:12:11.522Z,0
2016-09-17T04:13:11.454Z,0
2016-09-17T04:14:11.450Z,0
2016-09-17T04:15:11.453Z,0
2016-09-17T04:16:11.431Z,0
2016-09-17T04:17:11.484Z,0
2016-09-17T04:18:11.429Z,0
2016-09-17T04:19:11.521Z,0
2016-09-17T04:20:11.434Z,0
2016-09-17T04:21:11.451Z,0
2016-09-17T04:22:11.458Z,0
2016-09-17T04:23:11.440Z,0
2016-09-17T04:24:11.449Z,0
2016-09-17T04:25:11.469Z,0
2016-09-17T04:26:11.468Z,0
2016-09-17T04:27:11.510Z,0
2016-09-17T04:28:11.471Z,0
2016-09-17T04:29:11.460Z,0
2016-09-17T04:30:11.499Z,0
2016-09-17T04:31:11.470Z,0
2016-09-17T04:32:11.531Z,0
2016-09-17T04:33:11.571Z,0
2016-09-17T04:34:11.575Z,0
2016-09-17T04:35:11.517Z,0
2016-09-17T04:36:11.779Z,0
2016-09-17T04:37:11.571Z,0
2016-09-17T04:38:11.597Z,0
2016-09-17T04:39:11.589Z,0
2016-09-17T04:40:11.541Z,0
2016-09-17T04:41:11.493Z,0
2016-09-17T04:42:11.483Z,4
2016-09-17T04:43:11.514Z,4
2016-09-17T04:44:11.495Z,4
2016-09-17T04:45:11.492Z,4
2016-09-17T04:46:11.494Z,4
2016-09-17T04:47:11.479Z,4
2016-09-17T04:48:11.461Z,4
2016-09-17T04:49:11.479Z,8
2016-09-17T04:50:11.473Z,8
2016-09-17T04:51:11.468Z,8
2016-09-17T04:52:11.484Z,12
2016-09-17T04:53:11.497Z,16
2016-09-17T04:54:11.485Z,16
2016-09-17T04:55:11.484Z,20
2016-09-17T04:56:11.498Z,28
2016-09-17T04:57:11.484Z,32
2016-09-17T04:58:11.491Z,36
2016-09-17T04:59:11.495Z,40
2016-09-17T05:00:11.498Z,48
2016-09-17T05:01:11.524Z,52
2016-09-17T05:02:11.519Z,56
2016-09-17T05:03:11.504Z,60
2016-09-17T05:04:11.496Z,64
2016-09-17T05:05:11.492Z,68
2016-09-17T05:06:11.511Z,72
2016-09-17T05:07:11.491Z,76
2016-09-17T05:08:11.497Z,80
2016-09-17T05:09:11.513Z,84
2016-09-17T05:10:11.520Z,92
2016-09-17T05:11:11.528Z,96
2016-09-17T05:12:11.506Z,104
2016-09-17T05:13:11.497Z,108
2016-09-17T05:14:11.489Z,120
2016-09-17T05:15:11.527Z,128
2016-09-17T05:16:11.519Z,144
2016-09-17T05:17:11.507Z,156
2016-09-17T05:18:11.529Z,180
2016-09-17T05:19:11.538Z,204
2016-09-17T05:20:11.527Z,232
2016-09-17T05:21:11.580Z,264
2016-09-17T05:22:12.307Z,304
2016-09-17T05:23:11.518Z,340
2016-09-17T05:24:11.549Z,388
2016-09-17T05:25:11.495Z,432
2016-09-17T05:26:11.537Z,476
2016-09-17T05:27:11.540Z,524
2016-09-17T05:28:11.551Z,576
2016-09-17T05:29:11.533Z,632
2016-09-17T05:30:11.507Z,680
2016-09-17T05:31:11.535Z,728
2016-09-17T05:32:11.544Z,776
2016-09-17T05:33:11.542Z,828
2016-09-17T05:34:11.531Z,884
2016-09-17T05:35:11.539Z,940
2016-09-17T05:36:11.547Z,996
2016-09-17T05:37:11.536Z,1044
2016-09-17T05:38:11.504Z,1096
2016-09-17T05:39:11.539Z,1152
2016-09-17T05:40:11.568Z,1216
2016-09-17T05:41:11.540Z,1284
2016-09-17T05:42:11.527Z,1348
2016-09-17T05:43:11.600Z,1408
2016-09-17T05:44:11.523Z,1464
2016-09-17T05:45:11.561Z,1512
2016-09-17T05:46:11.522Z,1548
2016-09-17T05:47:11.548Z,1604
2016-09-17T05:48:11.516Z,1668
2016-09-17T05:49:11.605Z,1736
2016-09-17T05:50:11.526Z,1796
2016-09-17T05:51:11.523Z,1852
2016-09-17T05:52:11.548Z,1900
2016-09-17T05:53:11.557Z,1944
2016-09-17T05:54:11.548Z,1988
2016-09-17T05:55:11.539Z,2032
2016-09-17T05:56:11.565Z,2084
2016-09-17T05:57:11.644Z,2140
2016-09-17T05:58:11.568Z,2220
2016-09-17T05:59:11.549Z,2288
2016-09-17T06:00:11.551Z,2328
2016-09-17T06:01:11.536Z,2388
2016-09-17T06:02:11.572Z,2476
2016-09-17T06:03:11.578Z,2556
2016-09-17T06:04:11.615Z,2640
2016-09-17T06:05:11.574Z,2732
2016-09-17T06:06:11.567Z,2816
2016-09-17T06:07:11.564Z,2916
2016-09-17T06:08:11.567Z,3012
2016-09-17T06:09:11.594Z,3112
2016-09-17T06:10:11.570Z,3224
2016-09-17T06:11:11.613Z,3352
2016-09-17T06:12:11.616Z,3500
2016-09-17T06:13:11.570Z,3676
2016-09-17T06:14:11.604Z,3876
2016-09-17T06:15:11.554Z,4056
2016-09-17T06:16:11.540Z,4228
2016-09-17T06:17:11.829Z,4368
2016-09-17T06:18:11.542Z,4448
2016-09-17T06:19:11.559Z,4436
2016-09-17T06:20:11.614Z,4328
2016-09-17T06:21:11.555Z,4264
2016-09-17T06:22:11.576Z,4264
2016-09-17T06:23:11.571Z,4292
2016-09-17T06:24:11.576Z,4320
2016-09-17T06:25:11.573Z,4396
2016-09-17T06:26:11.608Z,4496
2016-09-17T06:27:11.557Z,4612
2016-09-17T06:28:11.571Z,4752
2016-09-17T06:29:11.557Z,4904
2016-09-17T06:30:11.573Z,5052
2016-09-17T06:31:11.607Z,5160
2016-09-17T06:32:11.595Z,5220
2016-09-17T06:33:11.589Z,5284
2016-09-17T06:34:11.591Z,5392
2016-09-17T06:35:11.563Z,5504
2016-09-17T06:36:11.601Z,5608
2016-09-17T06:37:11.619Z,5696
2016-09-17T06:38:11.611Z,5760
2016-09-17T06:39:11.653Z,5764
2016-09-17T06:40:11.600Z,5772
2016-09-17T06:41:11.599Z,5836
2016-09-17T06:42:11.628Z,5936
2016-09-17T06:43:11.602Z,6048
2016-09-17T06:44:11.602Z,6144
2016-09-17T06:45:11.572Z,6208
2016-09-17T06:46:11.595Z,6224
2016-09-17T06:47:11.673Z,6208
2016-09-17T06:48:11.580Z,6204
2016-09-17T06:49:11.601Z,6236
2016-09-17T06:50:11.585Z,6308
2016-09-17T06:51:11.605Z,6428
2016-09-17T06:52:11.626Z,6564
2016-09-17T06:53:11.589Z,6676
2016-09-17T06:54:11.655Z,6756
2016-09-17T06:55:11.610Z,6804
2016-09-17T06:56:11.592Z,6860
2016-09-17T06:57:11.599Z,6904
2016-09-17T06:58:11.646Z,6880
2016-09-17T06:59:11.642Z,6840
2016-09-17T07:00:11.604Z,6876
2016-09-17T07:01:11.618Z,7016
2016-09-17T07:02:11.607Z,7192
2016-09-17T07:03:11.644Z,7372
2016-09-17T07:04:11.621Z,7540
2016-09-17T07:05:11.640Z,7660
2016-09-17T07:06:11.589Z,7744
2016-09-17T07:07:11.636Z,7812
2016-09-17T07:08:11.619Z,7832
2016-09-17T07:09:11.592Z,7800
2016-09-17T07:10:11.629Z,7760
2016-09-17T07:11:11.640Z,7764
2016-09-17T07:12:11.631Z,7832
2016-09-17T07:13:11.632Z,7940
2016-09-17T07:14:11.612Z,8008
2016-09-17T07:15:11.639Z,8028
2016-09-17T07:16:11.610Z,8092
2016-09-17T07:17:11.619Z,8248
2016-09-17T07:18:11.610Z,8476
2016-09-17T07:19:11.704Z,8724
2016-09-17T07:20:11.636Z,8900
2016-09-17T07:21:11.627Z,8912
2016-09-17T07:22:11.678Z,8780
2016-09-17T07:23:11.615Z,8648
2016-09-17T07:24:11.706Z,8340
2016-09-17T07:25:11.612Z,7800
2016-09-17T07:26:11.649Z,7088
2016-09-17T07:27:11.709Z,6388
2016-09-17T07:28:11.661Z,5868
2016-09-17T07:29:11.652Z,5536
2016-09-17T07:30:11.641Z,5344
2016-09-17T07:31:11.680Z,5252
2016-09-17T07:32:11.729Z,5212
2016-09-17T07:33:11.650Z,5168
2016-09-17T07:34:11.720Z,5104
2016-09-17T07:35:11.642Z,5056
2016-09-17T07:36:11.619Z,5004
2016-09-17T07:37:11.625Z,4976
2016-09-17T07:38:11.625Z,4928
2016-09-17T07:39:11.643Z,4872
2016-09-17T07:40:11.639Z,4836
2016-09-17T07:41:11.632Z,4792
2016-09-17T07:42:11.666Z,4740
2016-09-17T07:43:11.676Z,4708
2016-09-17T07:44:11.707Z,4748
2016-09-17T07:45:11.651Z,4856
2016-09-17T07:46:11.660Z,4972
2016-09-17T07:47:11.706Z,5088
2016-09-17T07:48:11.691Z,5212
2016-09-17T07:49:11.680Z,5348
2016-09-17T07:50:11.661Z,5472
2016-09-17T07:51:11.700Z,5636
2016-09-17T07:52:11.691Z,5872
2016-09-17T07:53:11.732Z,6088
2016-09-17T07:54:11.699Z,6272
2016-09-17T07:55:11.880Z,6520
2016-09-17T07:56:11.940Z,6824
2016-09-17T07:57:11.670Z,7256
2016-09-17T07:58:11.734Z,7680
2016-09-17T07:59:11.686Z,7964
2016-09-17T08:00:11.656Z,8280
2016-09-17T08:01:11.671Z,8484
2016-09-17T08:02:11.671Z,8620
2016-09-17T08:03:13.950Z,8708
2016-09-17T08:04:15.542Z,8780
2016-09-17T08:05:19.614Z,8808
2016-09-17T08:06:11.647Z,8696
2016-09-17T08:07:11.669Z,8628
2016-09-17T08:08:11.663Z,8648
2016-09-17T08:09:11.666Z,8440
2016-09-17T08:10:11.698Z,8108
2016-09-17T08:11:11.696Z,7788
2016-09-17T08:12:11.653Z,7584
2016-09-17T08:13:11.664Z,7512
2016-09-17T08:14:11.701Z,7560
2016-09-17T08:15:11.693Z,7452
2016-09-17T08:16:11.686Z,6976
2016-09-17T08:17:11.699Z,6424
2016-09-17T08:18:11.679Z,5956
2016-09-17T08:19:11.689Z,5536
2016-09-17T08:24:29.987Z,5236
2016-09-17T08:24:39.890Z,5472
2016-09-17T08:25:39.905Z,5496
2016-09-17T08:26:39.980Z,5412
2016-09-17T08:27:39.922Z,5300
2016-09-17T08:28:39.914Z,5172
2016-09-17T08:29:39.893Z,5088
2016-09-17T08:30:39.906Z,5072
2016-09-17T08:31:39.878Z,5136
2016-09-17T08:32:39.928Z,5156
2016-09-17T08:33:39.894Z,5108
2016-09-17T08:34:39.900Z,5168
2016-09-17T08:35:39.887Z,5336
2016-09-17T08:36:40.013Z,5584
2016-09-17T08:37:39.934Z,5896
2016-09-17T08:38:39.945Z,6132
2016-09-17T08:39:39.912Z,6240
2016-09-17T08:40:39.927Z,6336
2016-09-17T08:41:39.931Z,6516
2016-09-17T08:42:39.951Z,6760
2016-09-17T08:43:39.914Z,6940
2016-09-17T08:44:39.904Z,7132
2016-09-17T08:45:39.915Z,7384
2016-09-17T08:46:39.914Z,7812
2016-09-17T08:47:39.939Z,8444
2016-09-17T08:48:40.208Z,9064
2016-09-17T08:49:39.929Z,9576
2016-09-17T08:50:39.931Z,9784
2016-09-17T08:51:39.953Z,9800
2016-09-17T08:52:39.909Z,9828
2016-09-17T08:53:39.977Z,9860
2016-09-17T08:54:39.913Z,10040
2016-09-17T08:55:39.935Z,10476
2016-09-17T08:56:39.942Z,10960
2016-09-17T08:57:39.909Z,11292
2016-09-17T08:58:40.005Z,11124
2016-09-17T08:59:39.941Z,10640
2016-09-17T09:00:39.924Z,10108
2016-09-17T09:01:39.916Z,9600
2016-09-17T09:02:39.923Z,9228
2016-09-17T09:03:39.936Z,8960
2016-09-17T09:04:39.986Z,8608
2016-09-17T09:05:39.984Z,8184
2016-09-17T09:06:40.201Z,7728
2016-09-17T09:07:39.938Z,7280
2016-09-17T09:08:40.039Z,6968
2016-09-17T09:09:39.942Z,6748
2016-09-17T09:10:39.942Z,6612
2016-09-17T09:11:39.933Z,6656
2016-09-17T09:12:39.943Z,6876
2016-09-17T09:13:39.978Z,7300
2016-09-17T09:14:39.968Z,7872
2016-09-17T09:15:39.953Z,8436
2016-09-17T09:16:39.965Z,8740
2016-09-17T09:17:39.959Z,8788
2016-09-17T09:18:39.947Z,8684
2016-09-17T09:19:39.971Z,8780
2016-09-17T09:20:39.954Z,8896
2016-09-17T09:21:39.956Z,8924
2016-09-17T09:22:39.951Z,8884
2016-09-17T09:23:39.956Z,8472
2016-09-17T09:24:39.990Z,8120
2016-09-17T09:25:39.956Z,7604
2016-09-17T09:26:39.967Z,7092
2016-09-17T09:27:39.951Z,6744
2016-09-17T09:28:40.161Z,6592
2016-09-17T09:29:39.989Z,6540
2016-09-17T09:30:39.943Z,6464
2016-09-17T09:31:39.987Z,6344
2016-09-17T09:32:39.961Z,6312
2016-09-17T09:33:39.979Z,6384
2016-09-17T09:34:39.959Z,6552
2016-09-17T09:35:39.978Z,6876
2016-09-17T09:36:40.001Z,7232
2016-09-17T09:37:39.994Z,7436
2016-09-17T09:38:39.973Z,7416
2016-09-17T09:39:39.987Z,7288
2016-09-17T09:40:39.987Z,7284
2016-09-17T09:41:40.049Z,7420
2016-09-17T09:42:39.990Z,7788
2016-09-17T09:43:40.010Z,8412
2016-09-17T09:44:40.010Z,9276
2016-09-17T09:45:39.994Z,10164
2016-09-17T09:46:40.021Z,10720
2016-09-17T09:47:39.982Z,10720
2016-09-17T09:48:40.006Z,10216
2016-09-17T09:49:40.028Z,9640
2016-09-17T09:50:39.986Z,9372
2016-09-17T09:51:39.975Z,9248
2016-09-17T09:52:39.985Z,9356
2016-09-17T09:53:40.051Z,8844
2016-09-17T09:54:40.253Z,9044
2016-09-17T09:55:40.196Z,9252
2016-09-17T09:56:40.135Z,9608
2016-09-17T09:57:40.120Z,10080
2016-09-17T09:58:40.144Z,10812
2016-09-17T09:59:40.069Z,11448
2016-09-17T10:00:40.007Z,11388
2016-09-17T10:01:40.046Z,10544
2016-09-17T10:02:40.029Z,9656
2016-09-17T10:03:40.000Z,8908
2016-09-17T10:04:39.994Z,8392
2016-09-17T10:05:39.995Z,7956
2016-09-17T10:06:40.019Z,7552
2016-09-17T10:07:40.029Z,7220
2016-09-17T10:08:40.108Z,6948
2016-09-17T10:09:40.036Z,6932
2016-09-17T10:10:40.086Z,7044
2016-09-17T10:11:40.035Z,7112
2016-09-17T10:12:39.995Z,7248
2016-09-17T10:13:40.038Z,7488
2016-09-17T10:14:40.105Z,7832
2016-09-17T10:15:40.023Z,8184
2016-09-17T10:16:40.040Z,8588
2016-09-17T10:17:40.080Z,8968
2016-09-17T10:18:40.118Z,9188
2016-09-17T10:19:40.024Z,9220
2016-09-17T10:20:40.232Z,9220
2016-09-17T10:21:40.039Z,9304
2016-09-17T10:22:40.043Z,9472
2016-09-17T10:23:40.050Z,9760
2016-09-17T10:24:40.093Z,10072
2016-09-17T10:25:40.064Z,10368
2016-09-17T10:26:40.066Z,10624
2016-09-17T10:27:40.030Z,10760
2016-09-17T10:28:40.030Z,10684
2016-09-17T10:29:40.071Z,10464
2016-09-17T10:30:40.031Z,10260
2016-09-17T10:31:40.011Z,10084
2016-09-17T10:32:40.065Z,9896
2016-09-17T10:33:40.018Z,9664
2016-09-17T10:34:40.028Z,9400
2016-09-17T10:35:40.011Z,9216
2016-09-17T10:36:40.037Z,9116
2016-09-17T10:37:40.045Z,9128
2016-09-17T10:38:40.067Z,9252
2016-09-17T10:39:40.052Z,9444
2016-09-17T10:40:40.100Z,9724
2016-09-17T10:41:40.055Z,10128
2016-09-17T10:42:40.032Z,10496
2016-09-17T10:43:40.083Z,10724
2016-09-17T10:44:40.034Z,10800
2016-09-17T10:45:40.065Z,10852
2016-09-17T10:46:40.071Z,10860
2016-09-17T10:47:40.054Z,10864
2016-09-17T10:48:40.031Z,11020
2016-09-17T10:49:40.123Z,11176
2016-09-17T10:50:40.043Z,11288
2016-09-17T10:51:40.025Z,12508
2016-09-17T10:52:40.040Z,12844
2016-09-17T10:53:40.065Z,13044
2016-09-17T10:54:40.050Z,13208
2016-09-17T10:55:40.023Z,13072
2016-09-17T10:56:40.064Z,12688
2016-09-17T10:57:40.045Z,12192
2016-09-17T10:58:40.079Z,11724
2016-09-17T10:59:40.066Z,11372
2016-09-17T11:00:40.034Z,11088
2016-09-17T11:01:40.052Z,10848
2016-09-17T11:02:40.030Z,10532
2016-09-17T11:03:40.025Z,10200
2016-09-17T11:04:40.053Z,10028
2016-09-17T11:05:40.211Z,10072
2016-09-17T11:06:40.041Z,10220
2016-09-17T11:07:40.050Z,10144
2016-09-17T11:08:40.087Z,9844
2016-09-17T11:09:40.064Z,9528
2016-09-17T11:10:40.053Z,9348
2016-09-17T11:11:40.059Z,9380
2016-09-17T11:12:40.222Z,9604
2016-09-17T11:13:40.124Z,10028
2016-09-17T11:14:40.126Z,10552
2016-09-17T11:15:40.084Z,10984
2016-09-17T11:16:40.091Z,11364
2016-09-17T11:17:40.153Z,11592
2016-09-17T11:18:40.091Z,11668
2016-09-17T11:19:40.080Z,11744
2016-09-17T11:20:40.085Z,11860
2016-09-17T11:21:40.039Z,12040
2016-09-17T11:22:40.105Z,12240
2016-09-17T11:23:40.065Z,12520
2016-09-17T11:24:40.089Z,12920
2016-09-17T11:25:40.097Z,13100
2016-09-17T11:26:40.135Z,12880
2016-09-17T11:27:40.089Z,12368
2016-09-17T11:28:40.087Z,11688
2016-09-17T11:29:40.116Z,10956
2016-09-17T11:30:40.101Z,10288
2016-09-17T11:31:40.082Z,9748
2016-09-17T11:32:40.094Z,9344
2016-09-17T11:33:40.076Z,9024
2016-09-17T11:34:40.090Z,8852
2016-09-17T11:35:40.075Z,8764
2016-09-17T11:36:40.114Z,8796
2016-09-17T11:37:40.124Z,8956
2016-09-17T11:38:40.095Z,9208
2016-09-17T11:39:40.113Z,9620
2016-09-17T11:40:40.092Z,10204
2016-09-17T11:41:40.082Z,10788
2016-09-17T11:42:40.084Z,11316
2016-09-17T11:43:40.096Z,11664
2016-09-17T11:44:40.119Z,11636
2016-09-17T11:45:40.083Z,11068
2016-09-17T11:46:40.112Z,10248
2016-09-17T11:47:40.088Z,9580
2016-09-17T11:48:40.095Z,9188
2016-09-17T11:49:40.125Z,9116
2016-09-17T11:50:40.092Z,9328
2016-09-17T11:51:40.104Z,9912
2016-09-17T11:52:40.098Z,11056
2016-09-17T11:53:40.087Z,12580
2016-09-17T11:54:40.096Z,13940
2016-09-17T11:55:40.155Z,14664
2016-09-17T11:56:40.122Z,14884
2016-09-17T11:57:40.139Z,14812
2016-09-17T11:58:40.102Z,14528
2016-09-17T11:59:40.094Z,14160
2016-09-17T12:00:40.112Z,13856
2016-09-17T12:01:40.120Z,13608
2016-09-17T12:02:40.135Z,13396
2016-09-17T12:03:40.118Z,13164
2016-09-17T12:04:40.112Z,12844
2016-09-17T12:05:40.119Z,12532
2016-09-17T12:06:40.151Z,12312
2016-09-17T12:07:40.112Z,12184
2016-09-17T12:08:40.335Z,12088
2016-09-17T12:09:40.101Z,12108
2016-09-17T12:10:40.105Z,12336
2016-09-17T12:11:40.109Z,12648
2016-09-17T12:12:40.135Z,12788
2016-09-17T12:13:40.125Z,12552
2016-09-17T12:14:40.131Z,11896
2016-09-17T12:15:40.123Z,11016
2016-09-17T12:16:40.419Z,10160
2016-09-17T12:17:40.147Z,9648
2016-09-17T12:18:40.144Z,9464
2016-09-17T12:19:40.149Z,9352
2016-09-17T12:20:40.137Z,9228
2016-09-17T12:21:40.175Z,9144
2016-09-17T12:22:40.116Z,9064
2016-09-17T12:23:40.166Z,8756
2016-09-17T12:24:40.126Z,8228
2016-09-17T12:25:40.129Z,7664
2016-09-17T12:26:40.166Z,7224
2016-09-17T12:27:40.129Z,6884
2016-09-17T12:28:40.157Z,6612
2016-09-17T12:29:40.160Z,6388
2016-09-17T12:30:40.160Z,6172
2016-09-17T12:31:40.147Z,5976
2016-09-17T12:32:40.977Z,5836
2016-09-17T12:33:40.160Z,5764
2016-09-17T12:34:40.147Z,5824
2016-09-17T12:35:40.172Z,6000
2016-09-17T12:36:40.136Z,6276
2016-09-17T12:37:40.137Z,6664
2016-09-17T12:38:40.188Z,7060
2016-09-17T12:39:40.217Z,7344
2016-09-17T12:40:40.189Z,7420
2016-09-17T12:41:40.228Z,7332
2016-09-17T12:42:40.161Z,7080
2016-09-17T12:43:40.191Z,6708
2016-09-17T12:44:40.253Z,6344
2016-09-17T12:45:40.157Z,6084
2016-09-17T12:46:40.181Z,5928
2016-09-17T12:47:40.175Z,5900
2016-09-17T12:48:40.171Z,5940
2016-09-17T12:49:40.200Z,5968
2016-09-17T12:50:40.170Z,5924
2016-09-17T12:51:40.203Z,5844
2016-09-17T12:52:40.182Z,5720
2016-09-17T12:53:40.214Z,5584
2016-09-17T12:54:40.178Z,5396
2016-09-17T12:55:40.233Z,5168
2016-09-17T12:56:41.188Z,4968
2016-09-17T12:57:40.179Z,4880
2016-09-17T12:58:40.214Z,4920
2016-09-17T12:59:40.183Z,4996
2016-09-17T13:00:40.364Z,5052
2016-09-17T13:01:40.384Z,5072
2016-09-17T13:02:40.204Z,4916
2016-09-17T13:03:40.161Z,4688
2016-09-17T13:04:40.239Z,4460
2016-09-17T13:05:40.400Z,4336
2016-09-17T13:06:40.569Z,4280
2016-09-17T13:07:40.687Z,4328
2016-09-17T13:08:40.204Z,4420
2016-09-17T13:09:40.253Z,4500
2016-09-17T13:10:40.262Z,4480
2016-09-17T13:11:40.230Z,4360
2016-09-17T13:12:40.230Z,4248
2016-09-17T13:13:40.215Z,4232
2016-09-17T13:14:40.223Z,4312
2016-09-17T13:15:40.200Z,4496
2016-09-17T13:16:40.232Z,4600
2016-09-17T13:17:40.219Z,4656
2016-09-17T13:18:40.232Z,4720
2016-09-17T13:19:40.191Z,4836
2016-09-17T13:20:40.199Z,5040
2016-09-17T13:21:40.209Z,5168
2016-09-17T13:22:40.199Z,4952
2016-09-17T13:23:40.231Z,4540
2016-09-17T13:24:40.231Z,4340
2016-09-17T13:25:40.217Z,4384
2016-09-17T13:26:40.232Z,4376
2016-09-17T13:27:40.953Z,4256
2016-09-17T13:28:40.256Z,4028
2016-09-17T13:29:40.234Z,3732
2016-09-17T13:30:40.292Z,3444
2016-09-17T13:31:40.258Z,3240
2016-09-17T13:32:40.280Z,3076
2016-09-17T13:33:40.223Z,3008
2016-09-17T13:34:40.232Z,3016
2016-09-17T13:35:40.234Z,3060
2016-09-17T13:36:40.268Z,3072
2016-09-17T13:37:40.240Z,2972
2016-09-17T13:38:40.202Z,2876
2016-09-17T13:39:40.224Z,2848
2016-09-17T13:40:40.230Z,2880
2016-09-17T13:41:40.223Z,2848
2016-09-17T13:42:40.192Z,2816
2016-09-17T13:43:40.200Z,2820
2016-09-17T13:44:40.189Z,2944
2016-09-17T13:45:40.206Z,3100
2016-09-17T13:46:40.217Z,3240
2016-09-17T13:47:40.233Z,3392
2016-09-17T13:48:40.229Z,3460
2016-09-17T13:49:40.261Z,3432